Auburn, NY

6:50 PM EST on January 24, 2017 (GMT -0500)
Pinfeather Place Fleming, NY | | Change Station
Active Advisory: Small Craft Advisory

Elev 741 ft 42.87 °N, 76.54 °W | Updated 11 seconds ago

Overcast
Overcast
30.0 °F
Feels Like 30 °F
N
0.0
Wind Variable Wind from SE
Gusts 0.0 mph

Today
High -- | Low -- °F
--% Chance of Precip.
Yesterday
High -- | Low -- °F
Precip. -- in
Pressure 29.60 in
Visibility 4.0 miles
Clouds Mostly Cloudy 900 ft
Overcast 1600 ft
Windchill 30 °F
Dew Point 26 °F
Humidity 86%
Rainfall 0.02 in
Snow Depth Not available.
7:28 AM 5:08 PM
Waning Crescent, 9% visible
METAR KSYR 242254Z 29011KT 4SM -SN BR BKN009 OVC016 M01/M03 A2960 RMK AO2 SLP024 P0000 T10111028
Pressure 29.60 in
Visibility 4.0 miles
Clouds Mostly Cloudy 900 ft
Overcast 1600 ft
Windchill 30 °F
Dew Point 26 °F
Humidity 86%
Rainfall 0.02 in
Snow Depth Not available.
7:28 AM 5:08 PM
Waning Crescent, 9% visible
METAR KSYR 242254Z 29011KT 4SM -SN BR BKN009 OVC016 M01/M03 A2960 RMK AO2 SLP024 P0000 T10111028

Get Your Daily Forecast Email!

Thanks for signing up!

Be on the lookout for a verification email in your inbox.

You'll start receiving the daily forecast at 8 AM.

×

10-Day Weather Forecast

Almanac

Astronomy

Jan. 24, 2017 Rise Set
Actual Time
Civil Twilight
Nautical Twilight
Astronomical Twilight
Moon
Length of Visible Light
Length of Day
Tomorrow will be .
, % of the Moon is Illuminated

Today's Extremes

State Highs State Lows

Community

WunderPhotos

Upload Photos

1,962,540 photos uploaded!

WunderBlog® & News

Nearby

Air Quality

  Air Quality AQ Index Pollutant
Not available.

Snow Depth

Station Depth Elevation

Earthquake Activity

City Distance Mag. Time & Date
Minimum magnitude displayed is 2.5.

Coastal Water Temperatures

Place Temperature

Stations

Nearby Weather Stations

Station Location Temp. Windchill Dew Point Humidity Wind Precip. Elev Updated Type
                   

Watches & Warnings

Small Craft Advisory
Issued: 12:54 PM EST Jan. 24, 2017 – National Weather Service

... Small Craft Advisory remains in effect until 7 PM EST this
evening...

* winds... northwest 5 to 15 knots.

* Waves... 3 to 6 feet.

Precautionary/preparedness actions...

A Small Craft Advisory means that wind speeds of 18 to 33 knots
and/or waves averaging 4 feet or more are expected to produce
hazardous wave conditions to small craft. Inexperienced
mariners... especially those operating smaller vessels... should
avoid navigating in these conditions.



Smith